sensor_id;sensor_type;location;lat;lon;timestamp;P1;durP1;ratioP1;P2;durP2;ratioP2
4984;SDS011;2509;49.902;8.600;2022-09-03T00:00:42;1.80;;;1.60;;
4984;SDS011;2509;49.902;8.600;2022-09-03T00:03:51;1.60;;;1.50;;
4984;SDS011;2509;49.902;8.600;2022-09-03T00:06:59;1.80;;;1.70;;
4984;SDS011;2509;49.902;8.600;2022-09-03T00:10:07;4.70;;;1.43;;
4984;SDS011;2509;49.902;8.600;2022-09-03T00:13:13;1.60;;;1.50;;
4984;SDS011;2509;49.902;8.600;2022-09-03T00:16:20;1.40;;;1.30;;
4984;SDS011;2509;49.902;8.600;2022-09-03T00:19:27;2.70;;;1.30;;
4984;SDS011;2509;49.902;8.600;2022-09-03T00:22:34;2.07;;;1.30;;
4984;SDS011;2509;49.902;8.600;2022-09-03T00:25:42;1.40;;;1.30;;
4984;SDS011;2509;49.902;8.600;2022-09-03T00:28:49;1.80;;;1.70;;
4984;SDS011;2509;49.902;8.600;2022-09-03T00:32:00;1.63;;;1.53;;
4984;SDS011;2509;49.902;8.600;2022-09-03T00:35:10;1.70;;;1.60;;
4984;SDS011;2509;49.902;8.600;2022-09-03T00:38:17;1.37;;;1.27;;
4984;SDS011;2509;49.902;8.600;2022-09-03T00:41:24;1.77;;;1.67;;
4984;SDS011;2509;49.902;8.600;2022-09-03T00:44:37;1.30;;;1.20;;
4984;SDS011;2509;49.902;8.600;2022-09-03T00:47:58;1.80;;;1.70;;
4984;SDS011;2509;49.902;8.600;2022-09-03T00:51:12;1.60;;;1.50;;
4984;SDS011;2509;49.902;8.600;2022-09-03T00:54:26;1.60;;;1.50;;
4984;SDS011;2509;49.902;8.600;2022-09-03T00:57:36;1.47;;;1.37;;
4984;SDS011;2509;49.902;8.600;2022-09-03T01:00:48;1.73;;;1.63;;
4984;SDS011;2509;49.902;8.600;2022-09-03T01:03:55;1.40;;;1.30;;
4984;SDS011;2509;49.902;8.600;2022-09-03T01:07:10;1.20;;;1.07;;
4984;SDS011;2509;49.902;8.600;2022-09-03T01:10:20;1.23;;;1.13;;
4984;SDS011;2509;49.902;8.600;2022-09-03T01:13:31;1.50;;;1.40;;
4984;SDS011;2509;49.902;8.600;2022-09-03T01:16:38;1.50;;;1.40;;
4984;SDS011;2509;49.902;8.600;2022-09-03T01:19:50;1.83;;;1.70;;
4984;SDS011;2509;49.902;8.600;2022-09-03T01:23:23;1.87;;;1.70;;
4984;SDS011;2509;49.902;8.600;2022-09-03T01:26:50;1.60;;;1.40;;
4984;SDS011;2509;49.902;8.600;2022-09-03T01:30:09;2.80;;;1.40;;
4984;SDS011;2509;49.902;8.600;2022-09-03T01:33:18;1.60;;;1.40;;
4984;SDS011;2509;49.902;8.600;2022-09-03T01:36:29;1.40;;;1.30;;
4984;SDS011;2509;49.902;8.600;2022-09-03T01:39:39;1.80;;;1.70;;
4984;SDS011;2509;49.902;8.600;2022-09-03T01:42:59;1.90;;;1.43;;
4984;SDS011;2509;49.902;8.600;2022-09-03T01:46:16;2.23;;;2.00;;
4984;SDS011;2509;49.902;8.600;2022-09-03T01:49:23;1.80;;;1.70;;
4984;SDS011;2509;49.902;8.600;2022-09-03T01:52:35;1.57;;;1.47;;
4984;SDS011;2509;49.902;8.600;2022-09-03T01:55:49;1.90;;;1.70;;
4984;SDS011;2509;49.902;8.600;2022-09-03T01:58:59;1.77;;;1.67;;
4984;SDS011;2509;49.902;8.600;2022-09-03T02:02:10;1.67;;;1.57;;
4984;SDS011;2509;49.902;8.600;2022-09-03T02:05:19;1.70;;;1.30;;
4984;SDS011;2509;49.902;8.600;2022-09-03T02:08:23;3.47;;;1.30;;
4984;SDS011;2509;49.902;8.600;2022-09-03T02:11:25;1.87;;;1.77;;
4984;SDS011;2509;49.902;8.600;2022-09-03T02:14:27;1.53;;;1.43;;
4984;SDS011;2509;49.902;8.600;2022-09-03T02:17:31;1.37;;;1.27;;
4984;SDS011;2509;49.902;8.600;2022-09-03T02:20:35;3.93;;;1.63;;
4984;SDS011;2509;49.902;8.600;2022-09-03T02:23:38;1.67;;;1.57;;
4984;SDS011;2509;49.902;8.600;2022-09-03T02:26:41;2.70;;;1.53;;
4984;SDS011;2509;49.902;8.600;2022-09-03T02:29:42;1.53;;;1.43;;
4984;SDS011;2509;49.902;8.600;2022-09-03T02:32:46;2.00;;;1.77;;
4984;SDS011;2509;49.902;8.600;2022-09-03T02:35:47;1.20;;;1.10;;
4984;SDS011;2509;49.902;8.600;2022-09-03T02:38:49;1.60;;;1.50;;
4984;SDS011;2509;49.902;8.600;2022-09-03T02:41:52;1.80;;;1.70;;
4984;SDS011;2509;49.902;8.600;2022-09-03T02:44:59;2.77;;;1.90;;
4984;SDS011;2509;49.902;8.600;2022-09-03T02:48:09;1.90;;;1.80;;
4984;SDS011;2509;49.902;8.600;2022-09-03T02:51:12;2.20;;;2.00;;
4984;SDS011;2509;49.902;8.600;2022-09-03T02:54:14;1.97;;;1.33;;
4984;SDS011;2509;49.902;8.600;2022-09-03T02:57:15;2.67;;;2.47;;
4984;SDS011;2509;49.902;8.600;2022-09-03T03:00:17;1.97;;;1.80;;
4984;SDS011;2509;49.902;8.600;2022-09-03T03:03:20;1.90;;;1.80;;
4984;SDS011;2509;49.902;8.600;2022-09-03T03:06:22;4.40;;;1.80;;
4984;SDS011;2509;49.902;8.600;2022-09-03T03:09:24;1.73;;;1.63;;
4984;SDS011;2509;49.902;8.600;2022-09-03T03:12:26;2.67;;;1.60;;
4984;SDS011;2509;49.902;8.600;2022-09-03T03:15:29;1.77;;;1.67;;
4984;SDS011;2509;49.902;8.600;2022-09-03T03:18:32;1.60;;;1.43;;
4984;SDS011;2509;49.902;8.600;2022-09-03T03:21:34;1.73;;;1.63;;
4984;SDS011;2509;49.902;8.600;2022-09-03T03:24:36;1.73;;;1.63;;
4984;SDS011;2509;49.902;8.600;2022-09-03T03:27:38;1.50;;;1.40;;
4984;SDS011;2509;49.902;8.600;2022-09-03T03:30:41;2.53;;;1.63;;
4984;SDS011;2509;49.902;8.600;2022-09-03T03:33:50;1.60;;;1.50;;
4984;SDS011;2509;49.902;8.600;2022-09-03T03:36:53;1.50;;;1.40;;
4984;SDS011;2509;49.902;8.600;2022-09-03T03:39:55;1.60;;;1.50;;
4984;SDS011;2509;49.902;8.600;2022-09-03T03:42:57;1.60;;;1.50;;
4984;SDS011;2509;49.902;8.600;2022-09-03T03:45:59;1.60;;;1.50;;
4984;SDS011;2509;49.902;8.600;2022-09-03T03:49:02;1.37;;;1.27;;
4984;SDS011;2509;49.902;8.600;2022-09-03T03:52:05;1.83;;;1.73;;
4984;SDS011;2509;49.902;8.600;2022-09-03T03:55:07;1.77;;;1.67;;
4984;SDS011;2509;49.902;8.600;2022-09-03T03:58:09;1.60;;;1.50;;
4984;SDS011;2509;49.902;8.600;2022-09-03T04:01:12;1.60;;;1.50;;
4984;SDS011;2509;49.902;8.600;2022-09-03T04:04:16;1.90;;;1.80;;
4984;SDS011;2509;49.902;8.600;2022-09-03T04:07:18;1.53;;;1.43;;
4984;SDS011;2509;49.902;8.600;2022-09-03T04:10:20;2.03;;;1.63;;
4984;SDS011;2509;49.902;8.600;2022-09-03T04:13:22;1.67;;;1.57;;
4984;SDS011;2509;49.902;8.600;2022-09-03T04:16:25;1.67;;;1.57;;
4984;SDS011;2509;49.902;8.600;2022-09-03T04:19:29;1.80;;;1.70;;
4984;SDS011;2509;49.902;8.600;2022-09-03T04:22:30;1.83;;;1.73;;
4984;SDS011;2509;49.902;8.600;2022-09-03T04:25:32;2.00;;;1.90;;
4984;SDS011;2509;49.902;8.600;2022-09-03T04:28:34;2.90;;;1.77;;
4984;SDS011;2509;49.902;8.600;2022-09-03T04:31:36;1.77;;;1.67;;
4984;SDS011;2509;49.902;8.600;2022-09-03T04:35:00;7.80;;;1.57;;
4984;SDS011;2509;49.902;8.600;2022-09-03T04:38:02;1.90;;;1.80;;
4984;SDS011;2509;49.902;8.600;2022-09-03T04:41:04;2.07;;;1.97;;
4984;SDS011;2509;49.902;8.600;2022-09-03T04:44:07;1.50;;;1.40;;
4984;SDS011;2509;49.902;8.600;2022-09-03T04:47:09;1.60;;;1.50;;
4984;SDS011;2509;49.902;8.600;2022-09-03T04:50:12;3.20;;;1.60;;
4984;SDS011;2509;49.902;8.600;2022-09-03T04:53:14;2.17;;;1.70;;
4984;SDS011;2509;49.902;8.600;2022-09-03T04:56:16;2.83;;;2.60;;
4984;SDS011;2509;49.902;8.600;2022-09-03T04:59:20;5.17;;;1.60;;
4984;SDS011;2509;49.902;8.600;2022-09-03T05:02:22;1.60;;;1.50;;
4984;SDS011;2509;49.902;8.600;2022-09-03T05:05:25;1.30;;;1.20;;
4984;SDS011;2509;49.902;8.600;2022-09-03T05:08:26;2.50;;;1.80;;
4984;SDS011;2509;49.902;8.600;2022-09-03T05:11:28;2.50;;;1.30;;
4984;SDS011;2509;49.902;8.600;2022-09-03T05:14:30;2.57;;;1.60;;
4984;SDS011;2509;49.902;8.600;2022-09-03T05:17:32;1.60;;;1.50;;
4984;SDS011;2509;49.902;8.600;2022-09-03T05:20:35;2.13;;;2.03;;
4984;SDS011;2509;49.902;8.600;2022-09-03T05:23:37;1.97;;;1.87;;
4984;SDS011;2509;49.902;8.600;2022-09-03T05:26:40;1.60;;;1.50;;
4984;SDS011;2509;49.902;8.600;2022-09-03T05:29:42;1.50;;;1.40;;
4984;SDS011;2509;49.902;8.600;2022-09-03T05:32:44;4.37;;;4.07;;
4984;SDS011;2509;49.902;8.600;2022-09-03T05:35:47;14.43;;;12.90;;
4984;SDS011;2509;49.902;8.600;2022-09-03T05:38:49;2.70;;;2.50;;
4984;SDS011;2509;49.902;8.600;2022-09-03T05:41:53;1.23;;;1.13;;
4984;SDS011;2509;49.902;8.600;2022-09-03T05:44:54;1.60;;;1.50;;
4984;SDS011;2509;49.902;8.600;2022-09-03T05:47:58;4.47;;;4.07;;
4984;SDS011;2509;49.902;8.600;2022-09-03T05:51:02;2.27;;;2.07;;
4984;SDS011;2509;49.902;8.600;2022-09-03T05:54:05;2.07;;;1.87;;
4984;SDS011;2509;49.902;8.600;2022-09-03T05:57:08;1.50;;;1.40;;
4984;SDS011;2509;49.902;8.600;2022-09-03T06:00:10;1.80;;;1.70;;
4984;SDS011;2509;49.902;8.600;2022-09-03T06:03:12;2.13;;;1.80;;
4984;SDS011;2509;49.902;8.600;2022-09-03T06:06:15;1.80;;;1.60;;
4984;SDS011;2509;49.902;8.600;2022-09-03T06:09:18;3.30;;;1.83;;
4984;SDS011;2509;49.902;8.600;2022-09-03T06:12:21;2.00;;;1.80;;
4984;SDS011;2509;49.902;8.600;2022-09-03T06:15:23;2.30;;;2.17;;
4984;SDS011;2509;49.902;8.600;2022-09-03T06:18:25;4.30;;;4.00;;
4984;SDS011;2509;49.902;8.600;2022-09-03T06:21:28;6.97;;;6.30;;
4984;SDS011;2509;49.902;8.600;2022-09-03T06:24:30;2.20;;;2.10;;
4984;SDS011;2509;49.902;8.600;2022-09-03T06:27:32;4.33;;;1.80;;
4984;SDS011;2509;49.902;8.600;2022-09-03T06:30:34;2.90;;;2.30;;
4984;SDS011;2509;49.902;8.600;2022-09-03T06:33:36;26.37;;;20.80;;
4984;SDS011;2509;49.902;8.600;2022-09-03T06:36:40;13.70;;;11.47;;
4984;SDS011;2509;49.902;8.600;2022-09-03T06:39:42;7.13;;;6.43;;
4984;SDS011;2509;49.902;8.600;2022-09-03T06:42:44;3.80;;;3.60;;
4984;SDS011;2509;49.902;8.600;2022-09-03T06:45:58;4.30;;;3.90;;
4984;SDS011;2509;49.902;8.600;2022-09-03T06:49:01;3.00;;;2.90;;
4984;SDS011;2509;49.902;8.600;2022-09-03T06:52:05;3.33;;;2.80;;
4984;SDS011;2509;49.902;8.600;2022-09-03T06:55:07;8.53;;;7.27;;
4984;SDS011;2509;49.902;8.600;2022-09-03T06:58:09;6.87;;;6.27;;
4984;SDS011;2509;49.902;8.600;2022-09-03T07:01:11;6.40;;;3.80;;
4984;SDS011;2509;49.902;8.600;2022-09-03T07:04:14;4.37;;;3.30;;
4984;SDS011;2509;49.902;8.600;2022-09-03T07:07:17;3.53;;;3.23;;
4984;SDS011;2509;49.902;8.600;2022-09-03T07:10:19;2.83;;;2.63;;
4984;SDS011;2509;49.902;8.600;2022-09-03T07:13:21;2.90;;;2.70;;
4984;SDS011;2509;49.902;8.600;2022-09-03T07:16:25;3.27;;;2.40;;
4984;SDS011;2509;49.902;8.600;2022-09-03T07:19:28;2.70;;;2.60;;
4984;SDS011;2509;49.902;8.600;2022-09-03T07:22:31;2.33;;;2.23;;
4984;SDS011;2509;49.902;8.600;2022-09-03T07:25:33;2.47;;;2.37;;
4984;SDS011;2509;49.902;8.600;2022-09-03T07:28:36;2.60;;;2.50;;
4984;SDS011;2509;49.902;8.600;2022-09-03T07:31:39;2.67;;;2.57;;
4984;SDS011;2509;49.902;8.600;2022-09-03T07:34:42;3.17;;;2.70;;
4984;SDS011;2509;49.902;8.600;2022-09-03T07:37:45;3.77;;;3.47;;
4984;SDS011;2509;49.902;8.600;2022-09-03T07:40:47;3.57;;;3.30;;
4984;SDS011;2509;49.902;8.600;2022-09-03T07:43:49;6.17;;;4.13;;
4984;SDS011;2509;49.902;8.600;2022-09-03T07:46:51;3.83;;;3.63;;
4984;SDS011;2509;49.902;8.600;2022-09-03T07:49:53;4.30;;;4.00;;
4984;SDS011;2509;49.902;8.600;2022-09-03T07:52:56;6.90;;;6.23;;
4984;SDS011;2509;49.902;8.600;2022-09-03T07:56:02;8.93;;;8.33;;
4984;SDS011;2509;49.902;8.600;2022-09-03T07:59:05;8.60;;;8.20;;
4984;SDS011;2509;49.902;8.600;2022-09-03T08:02:08;9.00;;;8.30;;
4984;SDS011;2509;49.902;8.600;2022-09-03T08:05:09;16.87;;;15.37;;
4984;SDS011;2509;49.902;8.600;2022-09-03T08:08:13;11.90;;;11.20;;
4984;SDS011;2509;49.902;8.600;2022-09-03T08:11:17;12.10;;;11.43;;
4984;SDS011;2509;49.902;8.600;2022-09-03T08:14:21;13.00;;;12.27;;
4984;SDS011;2509;49.902;8.600;2022-09-03T08:17:22;13.77;;;13.17;;
4984;SDS011;2509;49.902;8.600;2022-09-03T08:20:24;12.93;;;12.23;;
4984;SDS011;2509;49.902;8.600;2022-09-03T08:23:28;12.97;;;12.27;;
4984;SDS011;2509;49.902;8.600;2022-09-03T08:26:30;11.90;;;11.50;;
4984;SDS011;2509;49.902;8.600;2022-09-03T08:29:33;12.03;;;11.53;;
4984;SDS011;2509;49.902;8.600;2022-09-03T08:32:36;20.10;;;18.37;;
4984;SDS011;2509;49.902;8.600;2022-09-03T08:35:38;19.07;;;17.27;;
4984;SDS011;2509;49.902;8.600;2022-09-03T08:38:41;12.90;;;12.20;;
4984;SDS011;2509;49.902;8.600;2022-09-03T08:41:55;16.47;;;15.57;;
4984;SDS011;2509;49.902;8.600;2022-09-03T08:45:07;16.80;;;15.90;;
4984;SDS011;2509;49.902;8.600;2022-09-03T08:48:16;15.10;;;13.77;;
4984;SDS011;2509;49.902;8.600;2022-09-03T08:51:22;13.40;;;12.60;;
4984;SDS011;2509;49.902;8.600;2022-09-03T08:54:28;13.33;;;12.63;;
4984;SDS011;2509;49.902;8.600;2022-09-03T08:57:35;10.53;;;10.03;;
4984;SDS011;2509;49.902;8.600;2022-09-03T09:00:46;8.20;;;7.80;;
4984;SDS011;2509;49.902;8.600;2022-09-03T09:03:52;11.83;;;11.03;;
4984;SDS011;2509;49.902;8.600;2022-09-03T09:07:03;9.47;;;8.77;;
4984;SDS011;2509;49.902;8.600;2022-09-03T09:10:11;8.67;;;8.07;;
4984;SDS011;2509;49.902;8.600;2022-09-03T09:13:22;6.40;;;6.03;;
4984;SDS011;2509;49.902;8.600;2022-09-03T09:16:31;9.30;;;8.77;;
4984;SDS011;2509;49.902;8.600;2022-09-03T09:19:41;7.27;;;6.97;;
4984;SDS011;2509;49.902;8.600;2022-09-03T09:22:53;6.67;;;6.37;;
4984;SDS011;2509;49.902;8.600;2022-09-03T09:26:00;6.07;;;5.77;;
4984;SDS011;2509;49.902;8.600;2022-09-03T09:29:07;7.50;;;6.90;;
4984;SDS011;2509;49.902;8.600;2022-09-03T09:32:10;7.53;;;7.23;;
4984;SDS011;2509;49.902;8.600;2022-09-03T09:35:14;9.63;;;7.93;;
4984;SDS011;2509;49.902;8.600;2022-09-03T09:38:26;6.67;;;6.27;;
4984;SDS011;2509;49.902;8.600;2022-09-03T09:41:30;5.93;;;5.73;;
4984;SDS011;2509;49.902;8.600;2022-09-03T09:44:32;6.47;;;5.87;;
4984;SDS011;2509;49.902;8.600;2022-09-03T09:47:35;6.80;;;6.30;;
4984;SDS011;2509;49.902;8.600;2022-09-03T09:50:39;6.50;;;6.03;;
4984;SDS011;2509;49.902;8.600;2022-09-03T09:53:41;5.40;;;5.10;;
4984;SDS011;2509;49.902;8.600;2022-09-03T09:56:45;4.90;;;4.70;;
4984;SDS011;2509;49.902;8.600;2022-09-03T09:59:48;5.20;;;4.90;;
4984;SDS011;2509;49.902;8.600;2022-09-03T10:02:51;13.03;;;11.90;;
4984;SDS011;2509;49.902;8.600;2022-09-03T10:05:57;5.53;;;5.17;;
4984;SDS011;2509;49.902;8.600;2022-09-03T10:09:24;5.10;;;4.80;;
4984;SDS011;2509;49.902;8.600;2022-09-03T10:12:29;5.43;;;5.13;;
4984;SDS011;2509;49.902;8.600;2022-09-03T10:15:35;4.83;;;4.43;;
4984;SDS011;2509;49.902;8.600;2022-09-03T10:18:42;4.73;;;4.53;;
4984;SDS011;2509;49.902;8.600;2022-09-03T10:21:52;5.80;;;5.23;;
4984;SDS011;2509;49.902;8.600;2022-09-03T10:25:02;4.10;;;3.90;;
4984;SDS011;2509;49.902;8.600;2022-09-03T10:28:06;4.20;;;3.90;;
4984;SDS011;2509;49.902;8.600;2022-09-03T10:31:23;4.10;;;3.70;;
4984;SDS011;2509;49.902;8.600;2022-09-03T10:34:41;4.10;;;3.90;;
4984;SDS011;2509;49.902;8.600;2022-09-03T10:37:50;6.70;;;6.30;;
4984;SDS011;2509;49.902;8.600;2022-09-03T10:41:02;12.60;;;11.50;;
4984;SDS011;2509;49.902;8.600;2022-09-03T10:44:17;4.43;;;4.20;;
4984;SDS011;2509;49.902;8.600;2022-09-03T10:47:37;4.20;;;3.80;;
4984;SDS011;2509;49.902;8.600;2022-09-03T10:50:51;3.97;;;3.77;;
4984;SDS011;2509;49.902;8.600;2022-09-03T10:54:15;3.20;;;3.10;;
4984;SDS011;2509;49.902;8.600;2022-09-03T10:57:28;4.00;;;3.80;;
4984;SDS011;2509;49.902;8.600;2022-09-03T11:00:40;4.27;;;4.07;;
4984;SDS011;2509;49.902;8.600;2022-09-03T11:03:54;6.00;;;4.20;;
4984;SDS011;2509;49.902;8.600;2022-09-03T11:07:06;3.70;;;3.50;;
4984;SDS011;2509;49.902;8.600;2022-09-03T11:10:14;3.47;;;3.27;;
4984;SDS011;2509;49.902;8.600;2022-09-03T11:13:20;3.33;;;3.13;;
4984;SDS011;2509;49.902;8.600;2022-09-03T11:16:29;3.80;;;3.60;;
4984;SDS011;2509;49.902;8.600;2022-09-03T11:19:33;3.63;;;3.43;;
4984;SDS011;2509;49.902;8.600;2022-09-03T11:22:41;3.80;;;3.60;;
4984;SDS011;2509;49.902;8.600;2022-09-03T11:25:46;3.77;;;3.20;;
4984;SDS011;2509;49.902;8.600;2022-09-03T11:28:53;3.97;;;3.57;;
4984;SDS011;2509;49.902;8.600;2022-09-03T11:32:00;2.73;;;2.53;;
4984;SDS011;2509;49.902;8.600;2022-09-03T11:35:12;3.27;;;3.17;;
4984;SDS011;2509;49.902;8.600;2022-09-03T11:38:19;3.20;;;2.97;;
4984;SDS011;2509;49.902;8.600;2022-09-03T11:41:23;2.78;;;2.58;;
4984;SDS011;2509;49.902;8.600;2022-09-03T11:44:34;2.75;;;2.60;;
4984;SDS011;2509;49.902;8.600;2022-09-03T11:47:38;2.17;;;2.08;;
4984;SDS011;2509;49.902;8.600;2022-09-03T11:50:49;2.78;;;1.95;;
4984;SDS011;2509;49.902;8.600;2022-09-03T11:53:53;2.92;;;2.75;;
4984;SDS011;2509;49.902;8.600;2022-09-03T11:57:06;2.65;;;2.47;;
4984;SDS011;2509;49.902;8.600;2022-09-03T12:00:13;2.00;;;1.90;;
4984;SDS011;2509;49.902;8.600;2022-09-03T12:03:20;2.60;;;2.40;;
4984;SDS011;2509;49.902;8.600;2022-09-03T12:06:29;6.90;;;6.45;;
4984;SDS011;2509;49.902;8.600;2022-09-03T12:09:51;26.55;;;23.75;;
4984;SDS011;2509;49.902;8.600;2022-09-03T12:13:05;2.72;;;2.63;;
4984;SDS011;2509;49.902;8.600;2022-09-03T12:16:24;2.67;;;2.47;;
4984;SDS011;2509;49.902;8.600;2022-09-03T12:19:44;2.13;;;2.03;;
4984;SDS011;2509;49.902;8.600;2022-09-03T12:22:50;1.92;;;1.83;;
4984;SDS011;2509;49.902;8.600;2022-09-03T12:25:52;2.30;;;2.10;;
4984;SDS011;2509;49.902;8.600;2022-09-03T12:28:55;2.42;;;2.15;;
4984;SDS011;2509;49.902;8.600;2022-09-03T12:32:05;3.65;;;3.45;;
4984;SDS011;2509;49.902;8.600;2022-09-03T12:35:11;3.92;;;3.40;;
4984;SDS011;2509;49.902;8.600;2022-09-03T12:38:14;2.58;;;2.47;;
4984;SDS011;2509;49.902;8.600;2022-09-03T12:41:24;1.83;;;1.73;;
4984;SDS011;2509;49.902;8.600;2022-09-03T12:44:28;2.50;;;2.30;;
4984;SDS011;2509;49.902;8.600;2022-09-03T12:47:36;1.95;;;1.85;;
4984;SDS011;2509;49.902;8.600;2022-09-03T12:50:41;2.38;;;2.17;;
4984;SDS011;2509;49.902;8.600;2022-09-03T12:53:43;2.00;;;1.90;;
4984;SDS011;2509;49.902;8.600;2022-09-03T12:56:46;2.55;;;2.40;;
4984;SDS011;2509;49.902;8.600;2022-09-03T12:59:55;2.40;;;2.30;;
4984;SDS011;2509;49.902;8.600;2022-09-03T13:03:02;2.90;;;2.70;;
4984;SDS011;2509;49.902;8.600;2022-09-03T13:06:08;2.08;;;1.98;;
4984;SDS011;2509;49.902;8.600;2022-09-03T13:09:12;2.25;;;2.15;;
4984;SDS011;2509;49.902;8.600;2022-09-03T13:12:21;8.40;;;7.72;;
4984;SDS011;2509;49.902;8.600;2022-09-03T13:15:29;2.80;;;2.60;;
4984;SDS011;2509;49.902;8.600;2022-09-03T13:18:31;2.70;;;2.47;;
4984;SDS011;2509;49.902;8.600;2022-09-03T13:21:45;2.03;;;1.92;;
4984;SDS011;2509;49.902;8.600;2022-09-03T13:24:56;2.63;;;2.05;;
4984;SDS011;2509;49.902;8.600;2022-09-03T13:28:06;1.90;;;1.80;;
4984;SDS011;2509;49.902;8.600;2022-09-03T13:31:21;1.45;;;1.35;;
4984;SDS011;2509;49.902;8.600;2022-09-03T13:34:29;1.60;;;1.50;;
4984;SDS011;2509;49.902;8.600;2022-09-03T13:37:36;5.03;;;1.75;;
4984;SDS011;2509;49.902;8.600;2022-09-03T13:40:41;1.50;;;1.40;;
4984;SDS011;2509;49.902;8.600;2022-09-03T13:43:50;2.88;;;2.67;;
4984;SDS011;2509;49.902;8.600;2022-09-03T13:46:58;1.92;;;1.83;;
4984;SDS011;2509;49.902;8.600;2022-09-03T13:50:06;2.00;;;1.90;;
4984;SDS011;2509;49.902;8.600;2022-09-03T13:53:26;1.90;;;1.80;;
4984;SDS011;2509;49.902;8.600;2022-09-03T13:56:43;5.55;;;1.30;;
4984;SDS011;2509;49.902;8.600;2022-09-03T13:59:51;1.40;;;1.30;;
4984;SDS011;2509;49.902;8.600;2022-09-03T14:03:02;1.50;;;1.40;;
4984;SDS011;2509;49.902;8.600;2022-09-03T14:06:12;1.77;;;1.45;;
4984;SDS011;2509;49.902;8.600;2022-09-03T14:09:26;1.55;;;1.45;;
4984;SDS011;2509;49.902;8.600;2022-09-03T14:12:38;4.03;;;1.95;;
4984;SDS011;2509;49.902;8.600;2022-09-03T14:15:46;1.75;;;1.65;;
4984;SDS011;2509;49.902;8.600;2022-09-03T14:18:54;2.00;;;1.90;;
4984;SDS011;2509;49.902;8.600;2022-09-03T14:22:00;1.90;;;1.80;;
4984;SDS011;2509;49.902;8.600;2022-09-03T14:25:10;3.92;;;3.05;;
4984;SDS011;2509;49.902;8.600;2022-09-03T14:28:18;1.90;;;1.80;;
4984;SDS011;2509;49.902;8.600;2022-09-03T14:31:39;1.88;;;1.77;;
4984;SDS011;2509;49.902;8.600;2022-09-03T14:35:02;1.83;;;1.73;;
4984;SDS011;2509;49.902;8.600;2022-09-03T14:38:25;1.40;;;1.30;;
4984;SDS011;2509;49.902;8.600;2022-09-03T14:41:51;1.40;;;1.30;;
4984;SDS011;2509;49.902;8.600;2022-09-03T14:45:01;1.40;;;1.30;;
4984;SDS011;2509;49.902;8.600;2022-09-03T14:48:22;1.30;;;1.20;;
4984;SDS011;2509;49.902;8.600;2022-09-03T14:51:38;1.58;;;1.48;;
4984;SDS011;2509;49.902;8.600;2022-09-03T14:58:27;4.53;;;1.50;;
4984;SDS011;2509;49.902;8.600;2022-09-03T15:01:43;1.65;;;1.55;;
4984;SDS011;2509;49.902;8.600;2022-09-03T15:04:55;1.73;;;1.60;;
4984;SDS011;2509;49.902;8.600;2022-09-03T15:08:11;1.98;;;1.88;;
4984;SDS011;2509;49.902;8.600;2022-09-03T15:11:23;1.83;;;1.73;;
4984;SDS011;2509;49.902;8.600;2022-09-03T15:14:37;2.10;;;2.00;;
4984;SDS011;2509;49.902;8.600;2022-09-03T15:17:53;1.70;;;1.60;;
4984;SDS011;2509;49.902;8.600;2022-09-03T15:21:01;1.98;;;1.88;;
4984;SDS011;2509;49.902;8.600;2022-09-03T15:24:17;4.25;;;3.95;;
4984;SDS011;2509;49.902;8.600;2022-09-03T15:27:35;3.92;;;3.60;;
4984;SDS011;2509;49.902;8.600;2022-09-03T15:30:50;1.65;;;1.52;;
4984;SDS011;2509;49.902;8.600;2022-09-03T15:34:00;2.58;;;2.38;;
4984;SDS011;2509;49.902;8.600;2022-09-03T15:37:10;2.30;;;2.20;;
4984;SDS011;2509;49.902;8.600;2022-09-03T15:40:22;3.70;;;3.50;;
4984;SDS011;2509;49.902;8.600;2022-09-03T15:43:29;3.10;;;3.00;;
4984;SDS011;2509;49.902;8.600;2022-09-03T15:46:47;3.78;;;2.97;;
4984;SDS011;2509;49.902;8.600;2022-09-03T15:49:53;2.30;;;2.20;;
4984;SDS011;2509;49.902;8.600;2022-09-03T15:53:02;2.33;;;2.23;;
4984;SDS011;2509;49.902;8.600;2022-09-03T15:56:26;2.90;;;2.70;;
4984;SDS011;2509;49.902;8.600;2022-09-03T15:59:33;2.40;;;2.30;;
4984;SDS011;2509;49.902;8.600;2022-09-03T16:02:43;2.40;;;2.30;;
4984;SDS011;2509;49.902;8.600;2022-09-03T16:05:49;2.30;;;2.20;;
4984;SDS011;2509;49.902;8.600;2022-09-03T16:08:58;3.07;;;2.87;;
4984;SDS011;2509;49.902;8.600;2022-09-03T16:12:05;2.60;;;2.50;;
4984;SDS011;2509;49.902;8.600;2022-09-03T16:15:16;3.13;;;2.93;;
4984;SDS011;2509;49.902;8.600;2022-09-03T16:18:24;3.53;;;3.33;;
4984;SDS011;2509;49.902;8.600;2022-09-03T16:21:31;4.80;;;4.50;;
4984;SDS011;2509;49.902;8.600;2022-09-03T16:24:41;4.00;;;3.70;;
4984;SDS011;2509;49.902;8.600;2022-09-03T16:27:50;3.47;;;3.27;;
4984;SDS011;2509;49.902;8.600;2022-09-03T16:30:59;15.57;;;14.07;;
4984;SDS011;2509;49.902;8.600;2022-09-03T16:34:12;3.53;;;3.40;;
4984;SDS011;2509;49.902;8.600;2022-09-03T16:37:21;2.63;;;2.43;;
4984;SDS011;2509;49.902;8.600;2022-09-03T16:40:31;4.77;;;4.50;;
4984;SDS011;2509;49.902;8.600;2022-09-03T16:43:39;9.60;;;8.70;;
4984;SDS011;2509;49.902;8.600;2022-09-03T16:46:48;4.00;;;3.80;;
4984;SDS011;2509;49.902;8.600;2022-09-03T16:50:02;2.83;;;2.73;;
4984;SDS011;2509;49.902;8.600;2022-09-03T16:53:18;1.87;;;1.30;;
4984;SDS011;2509;49.902;8.600;2022-09-03T16:56:38;1.20;;;1.10;;
4984;SDS011;2509;49.902;8.600;2022-09-03T16:59:57;1.00;;;0.60;;
4984;SDS011;2509;49.902;8.600;2022-09-03T17:03:24;1.07;;;0.83;;
4984;SDS011;2509;49.902;8.600;2022-09-03T17:06:48;1.20;;;0.70;;
4984;SDS011;2509;49.902;8.600;2022-09-03T17:10:00;1.00;;;0.70;;
4984;SDS011;2509;49.902;8.600;2022-09-03T17:13:13;1.63;;;0.70;;
4984;SDS011;2509;49.902;8.600;2022-09-03T17:16:36;1.00;;;0.60;;
4984;SDS011;2509;49.902;8.600;2022-09-03T17:19:47;2.80;;;2.60;;
4984;SDS011;2509;49.902;8.600;2022-09-03T17:22:58;11.30;;;9.07;;
4984;SDS011;2509;49.902;8.600;2022-09-03T17:26:09;1.30;;;1.10;;
4984;SDS011;2509;49.902;8.600;2022-09-03T17:29:16;1.10;;;0.90;;
4984;SDS011;2509;49.902;8.600;2022-09-03T17:32:35;1.00;;;0.80;;
4984;SDS011;2509;49.902;8.600;2022-09-03T17:36:08;1.10;;;0.83;;
4984;SDS011;2509;49.902;8.600;2022-09-03T17:39:36;0.90;;;0.50;;
4984;SDS011;2509;49.902;8.600;2022-09-03T17:42:59;1.00;;;0.57;;
4984;SDS011;2509;49.902;8.600;2022-09-03T17:46:13;1.00;;;0.60;;
4984;SDS011;2509;49.902;8.600;2022-09-03T17:49:26;1.00;;;0.60;;
4984;SDS011;2509;49.902;8.600;2022-09-03T17:52:34;1.03;;;0.87;;
4984;SDS011;2509;49.902;8.600;2022-09-03T17:55:41;1.10;;;0.67;;
4984;SDS011;2509;49.902;8.600;2022-09-03T17:58:51;0.90;;;0.50;;
4984;SDS011;2509;49.902;8.600;2022-09-03T18:02:03;0.90;;;0.60;;
4984;SDS011;2509;49.902;8.600;2022-09-03T18:05:15;1.00;;;0.80;;
4984;SDS011;2509;49.902;8.600;2022-09-03T18:08:21;1.27;;;0.70;;
4984;SDS011;2509;49.902;8.600;2022-09-03T18:11:33;1.03;;;0.70;;
4984;SDS011;2509;49.902;8.600;2022-09-03T18:14:39;1.00;;;0.77;;
4984;SDS011;2509;49.902;8.600;2022-09-03T18:17:50;11.07;;;10.00;;
4984;SDS011;2509;49.902;8.600;2022-09-03T18:20:58;5.63;;;4.90;;
4984;SDS011;2509;49.902;8.600;2022-09-03T18:24:24;3.10;;;2.73;;
4984;SDS011;2509;49.902;8.600;2022-09-03T18:27:49;5.90;;;5.47;;
4984;SDS011;2509;49.902;8.600;2022-09-03T18:31:14;5.20;;;4.80;;
4984;SDS011;2509;49.902;8.600;2022-09-03T18:34:35;3.10;;;2.40;;
4984;SDS011;2509;49.902;8.600;2022-09-03T18:37:54;1.57;;;1.33;;
4984;SDS011;2509;49.902;8.600;2022-09-03T18:41:18;1.63;;;1.27;;
4984;SDS011;2509;49.902;8.600;2022-09-03T18:44:57;1.30;;;1.17;;
4984;SDS011;2509;49.902;8.600;2022-09-03T18:48:21;1.93;;;1.00;;
4984;SDS011;2509;49.902;8.600;2022-09-03T18:51:51;1.40;;;0.80;;
4984;SDS011;2509;49.902;8.600;2022-09-03T18:55:19;1.30;;;1.00;;
4984;SDS011;2509;49.902;8.600;2022-09-03T18:58:47;1.10;;;0.97;;
4984;SDS011;2509;49.902;8.600;2022-09-03T19:02:22;1.20;;;0.80;;
4984;SDS011;2509;49.902;8.600;2022-09-03T19:05:50;1.30;;;1.00;;
4984;SDS011;2509;49.902;8.600;2022-09-03T19:09:19;1.10;;;0.80;;
4984;SDS011;2509;49.902;8.600;2022-09-03T19:12:50;1.43;;;0.60;;
4984;SDS011;2509;49.902;8.600;2022-09-03T19:16:33;1.00;;;0.80;;
4984;SDS011;2509;49.902;8.600;2022-09-03T19:20:04;2.37;;;0.73;;
4984;SDS011;2509;49.902;8.600;2022-09-03T19:23:28;0.90;;;0.57;;
4984;SDS011;2509;49.902;8.600;2022-09-03T19:26:51;1.00;;;0.73;;
4984;SDS011;2509;49.902;8.600;2022-09-03T19:30:23;1.00;;;0.70;;
4984;SDS011;2509;49.902;8.600;2022-09-03T19:33:49;1.40;;;1.10;;